createdAt,value
2022-08-28T00:00:00.714Z,54.13
2022-08-28T00:00:10.706Z,54.00
2022-08-28T00:00:20.711Z,54.13
2022-08-28T00:00:30.706Z,54.13
2022-08-28T00:00:40.708Z,54.13
2022-08-28T00:00:50.704Z,54.23
2022-08-28T00:01:00.705Z,54.23
2022-08-28T00:01:10.700Z,54.23
2022-08-28T00:01:20.703Z,54.23
2022-08-28T00:01:30.698Z,54.23
2022-08-28T00:01:40.703Z,54.23
2022-08-28T00:01:50.696Z,54.13
2022-08-28T00:02:00.701Z,54.13
2022-08-28T00:02:10.698Z,54.13
2022-08-28T00:02:20.763Z,54.13
2022-08-28T00:02:30.742Z,54.13
2022-08-28T00:02:40.777Z,54.13
2022-08-28T00:02:50.793Z,54.13
2022-08-28T00:03:00.800Z,54.00
2022-08-28T00:03:10.792Z,54.03
2022-08-28T00:03:20.691Z,54.03
2022-08-28T00:03:30.686Z,54.13
2022-08-28T00:03:40.687Z,54.10
2022-08-28T00:03:50.686Z,54.10
2022-08-28T00:04:00.691Z,54.03
2022-08-28T00:04:10.682Z,54.00
2022-08-28T00:04:30.755Z,54.03
2022-08-28T00:04:40.761Z,54.13
2022-08-28T00:04:50.889Z,54.13
2022-08-28T00:05:00.704Z,54.13
2022-08-28T00:05:10.679Z,54.13
2022-08-28T00:05:20.675Z,54.03
2022-08-28T00:05:30.674Z,54.13
2022-08-28T00:05:40.673Z,54.03
2022-08-28T00:05:50.672Z,54.13
2022-08-28T00:06:00.672Z,54.13
2022-08-28T00:06:10.673Z,54.13
2022-08-28T00:06:20.670Z,54.13
2022-08-28T00:06:30.671Z,54.13
2022-08-28T00:06:40.665Z,54.13
2022-08-28T00:06:50.669Z,54.03
2022-08-28T00:07:00.663Z,54.00
2022-08-28T00:07:10.666Z,54.03
2022-08-28T00:07:20.661Z,54.03
2022-08-28T00:07:30.660Z,54.03
2022-08-28T00:07:44.284Z,54.13
2022-08-28T00:07:51.564Z,54.03
2022-08-28T00:08:00.654Z,54.03
2022-08-28T00:08:10.743Z,54.03
2022-08-28T00:08:20.655Z,54.13
2022-08-28T00:08:30.655Z,54.03
2022-08-28T00:08:40.652Z,54.03
2022-08-28T00:08:50.653Z,54.03
2022-08-28T00:09:00.652Z,54.03
2022-08-28T00:09:11.514Z,54.13
2022-08-28T00:09:20.647Z,54.13
2022-08-28T00:09:30.652Z,54.13
2022-08-28T00:09:40.646Z,54.13
2022-08-28T00:09:50.648Z,54.13
2022-08-28T00:10:00.646Z,54.13
2022-08-28T00:10:10.645Z,54.13
2022-08-28T00:10:20.642Z,54.13
2022-08-28T00:10:30.652Z,54.23
2022-08-28T00:10:40.644Z,54.23
2022-08-28T00:10:50.640Z,54.23
2022-08-28T00:11:00.639Z,54.33
2022-08-28T00:11:10.637Z,54.33
2022-08-28T00:11:20.634Z,54.33
2022-08-28T00:11:30.636Z,54.33
2022-08-28T00:11:40.631Z,54.33
2022-08-28T00:12:00.633Z,54.33
2022-08-28T00:12:10.632Z,54.33
2022-08-28T00:12:20.629Z,54.33
2022-08-28T00:12:30.631Z,54.33
2022-08-28T00:12:40.626Z,54.33
2022-08-28T00:12:50.645Z,54.33
2022-08-28T00:13:00.626Z,54.33
2022-08-28T00:13:10.626Z,54.23
2022-08-28T00:13:20.631Z,54.23
2022-08-28T00:13:30.625Z,54.23
2022-08-28T00:13:40.618Z,54.23
2022-08-28T00:13:50.620Z,54.23
2022-08-28T00:14:00.618Z,54.13
2022-08-28T00:14:10.619Z,54.23
2022-08-28T00:14:20.613Z,54.13
2022-08-28T00:14:30.619Z,54.13
2022-08-28T00:14:40.610Z,54.13
2022-08-28T00:14:50.615Z,54.13
2022-08-28T00:15:00.611Z,54.13
2022-08-28T00:15:10.612Z,54.13
2022-08-28T00:15:20.606Z,54.13
2022-08-28T00:15:30.626Z,54.13
2022-08-28T00:15:40.693Z,54.23
2022-08-28T00:15:50.684Z,54.23
2022-08-28T00:16:00.675Z,54.33
2022-08-28T00:16:10.705Z,54.33
2022-08-28T00:16:20.660Z,54.33
2022-08-28T00:16:30.705Z,54.33
2022-08-28T00:16:40.600Z,54.33
2022-08-28T00:16:50.601Z,54.33
2022-08-28T00:17:00.597Z,54.23
2022-08-28T00:17:10.600Z,54.23
2022-08-28T00:17:20.594Z,54.23
2022-08-28T00:17:30.597Z,54.23
2022-08-28T00:17:40.593Z,54.23
2022-08-28T00:17:50.607Z,54.23
2022-08-28T00:18:00.601Z,54.23
2022-08-28T00:18:10.593Z,54.23
2022-08-28T00:18:20.591Z,54.23
2022-08-28T00:18:30.593Z,54.23
2022-08-28T00:18:40.588Z,54.23
2022-08-28T00:18:50.586Z,54.33
2022-08-28T00:19:00.583Z,54.33
2022-08-28T00:19:10.586Z,54.33
2022-08-28T00:19:20.580Z,54.43
2022-08-28T00:19:30.585Z,54.43
2022-08-28T00:19:40.580Z,54.43
2022-08-28T00:19:50.583Z,54.43
2022-08-28T00:20:00.578Z,54.43
2022-08-28T00:20:10.576Z,54.43
2022-08-28T00:20:20.576Z,54.43
2022-08-28T00:20:30.574Z,54.43
2022-08-28T00:20:40.576Z,54.43
2022-08-28T00:20:50.577Z,54.33
2022-08-28T00:21:00.589Z,54.43
2022-08-28T00:21:10.573Z,54.43
2022-08-28T00:21:20.580Z,54.33
2022-08-28T00:21:30.571Z,54.33
2022-08-28T00:21:40.567Z,54.33
2022-08-28T00:21:50.569Z,54.33
2022-08-28T00:22:00.562Z,54.23
2022-08-28T00:22:10.568Z,54.23
2022-08-28T00:22:20.563Z,54.23
2022-08-28T00:22:30.562Z,54.23
2022-08-28T00:22:40.557Z,54.33
2022-08-28T00:22:50.561Z,54.33
2022-08-28T00:23:00.558Z,54.33
2022-08-28T00:23:10.559Z,54.33
2022-08-28T00:23:20.553Z,54.33
2022-08-28T00:23:42.686Z,54.33
2022-08-28T00:23:47.747Z,54.33
2022-08-28T00:23:52.412Z,54.33
2022-08-28T00:24:02.410Z,54.23
2022-08-28T00:24:12.410Z,54.23
2022-08-28T00:24:22.405Z,54.23
2022-08-28T00:24:32.407Z,54.23
2022-08-28T00:24:42.404Z,54.13
2022-08-28T00:24:52.406Z,54.13
2022-08-28T00:25:02.401Z,54.13
2022-08-28T00:25:12.405Z,54.13
2022-08-28T00:25:22.398Z,54.03
2022-08-28T00:25:32.403Z,54.03
2022-08-28T00:25:42.399Z,54.03
2022-08-28T00:25:52.406Z,54.03
2022-08-28T00:26:02.398Z,54.03
2022-08-28T00:26:12.397Z,54.03
2022-08-28T00:26:22.398Z,54.03
2022-08-28T00:26:32.407Z,54.03
2022-08-28T00:26:42.391Z,54.03
2022-08-28T00:26:52.392Z,53.93
2022-08-28T00:27:02.389Z,53.93
2022-08-28T00:27:12.391Z,53.93
2022-08-28T00:27:22.384Z,53.93
2022-08-28T00:27:32.390Z,53.93
2022-08-28T00:27:42.383Z,53.93
2022-08-28T00:27:52.385Z,53.93
2022-08-28T00:28:05.228Z,53.93
2022-08-28T00:28:23.659Z,53.93
2022-08-28T00:28:28.902Z,53.93
2022-08-28T00:28:33.565Z,53.93
2022-08-28T00:28:43.562Z,53.93
2022-08-28T00:28:53.565Z,53.80
2022-08-28T00:29:03.562Z,53.93
2022-08-28T00:29:13.560Z,53.93
2022-08-28T00:29:23.558Z,53.93
2022-08-28T00:29:33.564Z,53.93
2022-08-28T00:29:43.590Z,53.93
2022-08-28T00:30:03.554Z,54.03
2022-08-28T00:30:13.554Z,54.03
2022-08-28T00:30:23.550Z,54.03
2022-08-28T00:30:33.556Z,54.03
2022-08-28T00:30:43.548Z,54.03
2022-08-28T00:30:53.623Z,54.13
2022-08-28T00:31:03.585Z,54.03
2022-08-28T00:31:13.614Z,54.03
2022-08-28T00:31:23.593Z,54.03
2022-08-28T00:31:33.605Z,54.03
2022-08-28T00:31:43.598Z,54.03
2022-08-28T00:31:53.544Z,54.03
2022-08-28T00:32:03.539Z,54.03
2022-08-28T00:32:13.542Z,53.93
2022-08-28T00:32:23.547Z,54.03
2022-08-28T00:32:33.542Z,54.03
2022-08-28T00:32:43.538Z,54.03
2022-08-28T00:32:53.541Z,54.03
2022-08-28T00:33:03.534Z,54.03
2022-08-28T00:33:13.534Z,54.03
2022-08-28T00:33:23.532Z,54.03
2022-08-28T00:33:33.558Z,54.03
2022-08-28T00:33:43.528Z,54.03
2022-08-28T00:33:53.529Z,54.13
2022-08-28T00:34:03.527Z,54.13
2022-08-28T00:34:13.530Z,54.13
2022-08-28T00:34:25.467Z,54.13
2022-08-28T00:34:38.173Z,54.03
2022-08-28T00:34:43.522Z,54.03
2022-08-28T00:34:53.530Z,54.03
2022-08-28T00:35:03.519Z,54.03
2022-08-28T00:35:13.522Z,54.03
2022-08-28T00:35:23.518Z,54.03
2022-08-28T00:35:33.521Z,54.03
2022-08-28T00:35:43.518Z,54.03
2022-08-28T00:35:53.519Z,54.03
2022-08-28T00:36:03.530Z,53.93
2022-08-28T00:36:13.518Z,53.93
2022-08-28T00:36:23.513Z,53.93
2022-08-28T00:36:33.515Z,53.93
2022-08-28T00:36:43.508Z,54.03
2022-08-28T00:36:53.511Z,54.03
2022-08-28T00:37:03.507Z,54.03
2022-08-28T00:37:13.507Z,54.13
2022-08-28T00:37:33.507Z,54.13
2022-08-28T00:37:43.503Z,54.13
2022-08-28T00:37:53.506Z,54.03
2022-08-28T00:38:03.502Z,54.13
2022-08-28T00:38:13.672Z,54.03
2022-08-28T00:38:23.499Z,54.13
2022-08-28T00:38:33.499Z,54.13
2022-08-28T00:38:43.515Z,54.13
2022-08-28T00:38:53.498Z,54.13
2022-08-28T00:39:03.495Z,54.13
2022-08-28T00:39:13.495Z,54.13
2022-08-28T00:39:23.494Z,54.13
2022-08-28T00:39:33.493Z,54.23
2022-08-28T00:39:43.491Z,54.13
2022-08-28T00:40:03.545Z,54.13
2022-08-28T00:40:13.543Z,54.13
2022-08-28T00:40:28.745Z,54.03
2022-08-28T00:40:37.055Z,54.03
2022-08-28T00:40:44.091Z,54.03
2022-08-28T00:40:53.484Z,54.03
2022-08-28T00:41:04.077Z,54.03
2022-08-28T00:41:13.484Z,53.93
2022-08-28T00:41:25.023Z,53.93
2022-08-28T00:41:33.481Z,53.93
2022-08-28T00:41:43.479Z,53.93
2022-08-28T00:41:57.837Z,53.93
2022-08-28T00:42:03.475Z,53.93
2022-08-28T00:42:13.476Z,53.93
2022-08-28T00:42:23.473Z,53.93
2022-08-28T00:42:33.475Z,53.93
2022-08-28T00:42:43.470Z,53.93
2022-08-28T00:42:53.474Z,54.03
2022-08-28T00:43:03.467Z,54.03
2022-08-28T00:43:13.469Z,54.03
2022-08-28T00:43:23.467Z,54.03
2022-08-28T00:43:33.468Z,54.03
2022-08-28T00:43:43.463Z,54.03
2022-08-28T00:43:53.478Z,53.93
2022-08-28T00:44:03.463Z,53.93
2022-08-28T00:44:13.462Z,53.93
2022-08-28T00:44:23.459Z,53.93
2022-08-28T00:44:33.458Z,53.93
2022-08-28T00:44:43.462Z,53.93
2022-08-28T00:45:03.453Z,53.93
2022-08-28T00:45:13.455Z,53.93
2022-08-28T00:45:23.452Z,53.93
2022-08-28T00:45:38.723Z,53.93
2022-08-28T00:45:44.180Z,54.03
2022-08-28T00:45:53.453Z,54.03
2022-08-28T00:46:03.494Z,54.03
2022-08-28T00:46:13.491Z,54.03
2022-08-28T00:46:23.501Z,54.03
2022-08-28T00:46:33.467Z,54.03
2022-08-28T00:46:43.482Z,53.93
2022-08-28T00:46:53.604Z,53.93
2022-08-28T00:47:03.441Z,54.03
2022-08-28T00:47:13.443Z,54.03
2022-08-28T00:47:23.438Z,54.03
2022-08-28T00:47:33.442Z,54.03
2022-08-28T00:47:43.439Z,54.03
2022-08-28T00:47:53.435Z,54.03
2022-08-28T00:48:03.441Z,54.03
2022-08-28T00:48:13.647Z,54.03
2022-08-28T00:48:23.433Z,54.03
2022-08-28T00:48:33.439Z,54.03
2022-08-28T00:48:43.434Z,54.03
2022-08-28T00:48:53.428Z,54.03
2022-08-28T00:49:03.447Z,54.03
2022-08-28T00:49:13.428Z,53.93
2022-08-28T00:49:23.444Z,53.93
2022-08-28T00:49:33.423Z,53.93
2022-08-28T00:49:43.430Z,53.93
2022-08-28T00:50:03.424Z,53.93
2022-08-28T00:50:13.419Z,53.93
2022-08-28T00:50:23.420Z,53.93
2022-08-28T00:50:33.419Z,53.93
2022-08-28T00:50:43.420Z,53.93
2022-08-28T00:50:53.419Z,53.83
2022-08-28T00:51:03.430Z,53.93
2022-08-28T00:51:13.472Z,53.83
2022-08-28T00:51:23.414Z,53.83
2022-08-28T00:51:33.412Z,53.93
2022-08-28T00:51:43.414Z,53.93
2022-08-28T00:51:53.410Z,53.93
2022-08-28T00:52:03.411Z,53.93
2022-08-28T00:52:13.406Z,53.93
2022-08-28T00:52:33.404Z,53.93
2022-08-28T00:52:43.406Z,53.93
2022-08-28T00:52:53.403Z,53.93
2022-08-28T00:53:03.405Z,54.03
2022-08-28T00:53:13.401Z,54.13
2022-08-28T00:53:23.531Z,54.13
2022-08-28T00:53:33.463Z,54.13
2022-08-28T00:53:43.400Z,54.13
2022-08-28T00:53:56.777Z,54.13
2022-08-28T00:54:07.500Z,54.13
2022-08-28T00:54:13.393Z,54.03
2022-08-28T00:54:23.394Z,54.03
2022-08-28T00:54:33.414Z,54.03
2022-08-28T00:54:50.472Z,54.03
2022-08-28T00:55:03.467Z,54.03
2022-08-28T00:55:18.128Z,54.03
2022-08-28T00:55:28.127Z,54.03
2022-08-28T00:55:38.126Z,54.03
2022-08-28T00:55:56.990Z,54.13
2022-08-28T00:56:01.663Z,54.13
2022-08-28T00:56:13.281Z,54.03
2022-08-28T00:56:21.650Z,54.03
2022-08-28T00:56:31.651Z,53.93
2022-08-28T00:56:41.648Z,53.93
2022-08-28T00:56:51.649Z,53.93
2022-08-28T00:57:01.645Z,53.93
2022-08-28T00:57:11.648Z,53.93
2022-08-28T00:57:21.645Z,53.83
2022-08-28T00:57:31.655Z,53.93
2022-08-28T00:57:41.643Z,53.93
2022-08-28T00:57:51.642Z,53.83
2022-08-28T00:58:01.638Z,53.83
2022-08-28T00:58:11.807Z,53.83
2022-08-28T00:58:21.636Z,53.83
2022-08-28T00:58:31.638Z,53.83
2022-08-28T00:58:41.635Z,53.83
2022-08-28T00:58:51.636Z,53.73
2022-08-28T00:59:01.631Z,53.83
2022-08-28T00:59:11.634Z,53.73
2022-08-28T00:59:21.629Z,53.73
2022-08-28T00:59:31.633Z,53.73
2022-08-28T00:59:41.649Z,53.73
2022-08-28T00:59:51.630Z,53.73
2022-08-28T01:00:01.640Z,53.73
2022-08-28T01:00:11.628Z,53.73
2022-08-28T01:00:21.624Z,53.73
2022-08-28T01:00:31.625Z,53.73
2022-08-28T01:00:41.620Z,53.73
2022-08-28T01:00:51.623Z,53.83
2022-08-28T01:01:01.710Z,53.83
2022-08-28T01:01:11.621Z,53.83
2022-08-28T01:01:21.645Z,53.83
2022-08-28T01:01:31.678Z,53.83
2022-08-28T01:01:41.721Z,53.73
2022-08-28T01:01:51.648Z,53.73
2022-08-28T01:02:01.663Z,53.73
2022-08-28T01:02:11.617Z,53.73
2022-08-28T01:02:21.659Z,53.63
2022-08-28T01:02:31.678Z,53.73
2022-08-28T01:02:41.666Z,53.73
2022-08-28T01:02:51.623Z,53.83
2022-08-28T01:03:01.707Z,53.83
2022-08-28T01:03:11.692Z,53.83
2022-08-28T01:03:21.603Z,53.83
2022-08-28T01:03:31.603Z,53.73
2022-08-28T01:03:41.601Z,53.73
2022-08-28T01:03:51.605Z,53.73
2022-08-28T01:04:01.600Z,53.73
2022-08-28T01:04:11.603Z,53.73
2022-08-28T01:04:21.596Z,53.73
2022-08-28T01:04:31.600Z,53.73
2022-08-28T01:04:41.596Z,53.73
2022-08-28T01:04:51.611Z,53.73
2022-08-28T01:05:01.593Z,53.73
2022-08-28T01:05:11.594Z,53.73
2022-08-28T01:05:21.590Z,53.73
2022-08-28T01:05:31.591Z,53.63
2022-08-28T01:05:41.588Z,53.63
2022-08-28T01:05:51.591Z,53.63
2022-08-28T01:06:01.587Z,53.63
2022-08-28T01:06:11.593Z,53.63
2022-08-28T01:06:21.585Z,53.63
2022-08-28T01:06:31.584Z,53.63
2022-08-28T01:06:41.587Z,53.63
2022-08-28T01:06:51.584Z,53.63
2022-08-28T01:07:01.580Z,53.63
2022-08-28T01:07:11.581Z,53.63
2022-08-28T01:07:21.578Z,53.63
2022-08-28T01:07:31.580Z,53.53
2022-08-28T01:07:41.582Z,53.63
2022-08-28T01:08:01.574Z,53.63
2022-08-28T01:08:11.846Z,53.63
2022-08-28T01:08:21.571Z,53.63
2022-08-28T01:08:31.574Z,53.63
2022-08-28T01:08:41.571Z,53.63
2022-08-28T01:08:51.570Z,53.63
2022-08-28T01:09:01.570Z,53.63
2022-08-28T01:09:11.570Z,53.63
2022-08-28T01:09:21.587Z,53.73
2022-08-28T01:09:31.567Z,53.73
2022-08-28T01:09:41.568Z,53.73
2022-08-28T01:09:51.567Z,53.73
2022-08-28T01:10:01.581Z,53.73
2022-08-28T01:10:11.561Z,53.83
2022-08-28T01:10:31.566Z,53.73
2022-08-28T01:10:41.556Z,53.73
2022-08-28T01:10:51.561Z,53.73
2022-08-28T01:11:01.569Z,53.73
2022-08-28T01:11:11.556Z,53.73
2022-08-28T01:11:21.552Z,53.73
2022-08-28T01:11:31.552Z,53.73
2022-08-28T01:11:41.546Z,53.73
2022-08-28T01:11:51.551Z,53.73
2022-08-28T01:12:01.547Z,53.73
2022-08-28T01:12:11.548Z,53.63
2022-08-28T01:12:21.558Z,53.63
2022-08-28T01:12:31.547Z,53.63
2022-08-28T01:12:41.543Z,53.63
2022-08-28T01:13:01.555Z,53.63
2022-08-28T01:13:11.543Z,53.63
2022-08-28T01:13:21.538Z,53.63
2022-08-28T01:13:31.544Z,53.63
2022-08-28T01:13:41.535Z,53.63
2022-08-28T01:13:51.538Z,53.53
2022-08-28T01:14:01.973Z,53.63
2022-08-28T01:14:11.532Z,53.63
2022-08-28T01:14:21.534Z,53.63
2022-08-28T01:14:31.538Z,53.63
2022-08-28T01:14:41.529Z,53.63
2022-08-28T01:14:51.531Z,53.63
2022-08-28T01:15:01.528Z,53.73
2022-08-28T01:15:11.529Z,53.73
2022-08-28T01:15:31.636Z,53.73
2022-08-28T01:15:41.563Z,53.73
2022-08-28T01:15:51.628Z,53.73
2022-08-28T01:16:01.562Z,53.73
2022-08-28T01:16:11.609Z,53.63
2022-08-28T01:16:21.543Z,53.63
2022-08-28T01:16:32.371Z,53.63
2022-08-28T01:16:41.537Z,53.63
2022-08-28T01:16:51.518Z,53.63
2022-08-28T01:17:01.514Z,53.63
2022-08-28T01:17:11.517Z,53.63
2022-08-28T01:17:21.511Z,53.63
2022-08-28T01:17:31.512Z,53.63
2022-08-28T01:17:43.242Z,53.63
2022-08-28T01:18:05.965Z,53.73
2022-08-28T01:18:12.561Z,53.73
2022-08-28T01:18:21.505Z,53.73
2022-08-28T01:18:31.507Z,53.73
2022-08-28T01:18:41.504Z,53.73
2022-08-28T01:18:51.503Z,53.73
2022-08-28T01:19:01.501Z,53.73
2022-08-28T01:19:11.506Z,53.73
2022-08-28T01:19:21.497Z,53.73
2022-08-28T01:19:31.500Z,53.73
2022-08-28T01:19:41.496Z,53.73
2022-08-28T01:19:51.497Z,53.63
2022-08-28T01:20:01.494Z,53.63
2022-08-28T01:20:11.495Z,53.63
2022-08-28T01:20:21.492Z,53.63
2022-08-28T01:20:31.493Z,53.63
2022-08-28T01:20:41.490Z,53.63
2022-08-28T01:20:51.491Z,53.63
2022-08-28T01:21:01.487Z,53.63
2022-08-28T01:21:11.490Z,53.63
2022-08-28T01:21:25.055Z,53.63
2022-08-28T01:21:31.486Z,53.63
2022-08-28T01:21:41.484Z,53.53
2022-08-28T01:21:51.495Z,53.63
2022-08-28T01:22:01.481Z,53.53
2022-08-28T01:22:11.481Z,53.53
2022-08-28T01:22:21.480Z,53.53
2022-08-28T01:22:31.480Z,53.53
2022-08-28T01:22:41.500Z,53.53
2022-08-28T01:22:51.478Z,53.53
2022-08-28T01:23:01.475Z,53.53
2022-08-28T01:23:11.488Z,53.53
2022-08-28T01:23:21.473Z,53.53
2022-08-28T01:23:31.473Z,53.53
2022-08-28T01:23:41.469Z,53.53
2022-08-28T01:23:51.471Z,53.53
2022-08-28T01:24:01.466Z,53.53
2022-08-28T01:24:11.470Z,53.53
2022-08-28T01:24:21.465Z,53.53
2022-08-28T01:24:31.466Z,53.53
2022-08-28T01:24:41.462Z,53.53
2022-08-28T01:24:51.464Z,53.53
2022-08-28T01:25:01.460Z,53.63
2022-08-28T01:25:11.469Z,53.63
2022-08-28T01:25:21.459Z,53.73
2022-08-28T01:25:31.460Z,53.73
2022-08-28T01:25:41.457Z,53.73
2022-08-28T01:25:51.462Z,53.73
2022-08-28T01:26:01.509Z,53.73
2022-08-28T01:26:12.089Z,53.73
2022-08-28T01:26:21.453Z,53.63
2022-08-28T01:26:31.453Z,53.63
2022-08-28T01:26:41.450Z,53.63
2022-08-28T01:26:51.452Z,53.63
2022-08-28T01:27:01.448Z,53.63
2022-08-28T01:27:11.448Z,53.63
2022-08-28T01:27:21.445Z,53.63
2022-08-28T01:27:31.447Z,53.63
2022-08-28T01:27:41.442Z,53.53
2022-08-28T01:27:51.457Z,53.53
2022-08-28T01:28:01.443Z,53.53
2022-08-28T01:28:11.794Z,53.53
2022-08-28T01:28:21.439Z,53.53
2022-08-28T01:28:31.439Z,53.53
2022-08-28T01:28:41.436Z,53.53
2022-08-28T01:28:51.437Z,53.53
2022-08-28T01:29:01.455Z,53.53
2022-08-28T01:29:11.433Z,53.63
2022-08-28T01:29:21.435Z,53.63
2022-08-28T01:29:31.436Z,53.63
2022-08-28T01:29:41.454Z,53.63
2022-08-28T01:29:51.430Z,53.63
2022-08-28T01:30:01.427Z,53.63
2022-08-28T01:30:11.431Z,53.63
2022-08-28T01:30:21.427Z,53.63
2022-08-28T01:30:31.424Z,53.53
2022-08-28T01:30:41.423Z,53.53
2022-08-28T01:30:51.512Z,53.53
2022-08-28T01:31:01.467Z,53.53
2022-08-28T01:31:21.554Z,53.53
2022-08-28T01:31:31.556Z,53.53
2022-08-28T01:31:41.516Z,53.53
2022-08-28T01:31:51.415Z,53.53
2022-08-28T01:32:01.419Z,53.63
2022-08-28T01:32:11.423Z,53.63
2022-08-28T01:32:21.415Z,53.63
2022-08-28T01:32:31.412Z,53.63
2022-08-28T01:32:41.440Z,53.53
2022-08-28T01:32:51.408Z,53.63
2022-08-28T01:33:01.411Z,53.63
2022-08-28T01:33:11.970Z,53.63
2022-08-28T01:33:27.831Z,53.63
2022-08-28T01:33:32.766Z,53.63
2022-08-28T01:33:42.605Z,53.63
2022-08-28T01:33:51.400Z,53.63
2022-08-28T01:34:01.401Z,53.63
2022-08-28T01:34:11.416Z,53.63
2022-08-28T01:34:21.404Z,53.63
2022-08-28T01:34:31.396Z,53.53
2022-08-28T01:34:41.398Z,53.53
2022-08-28T01:34:51.395Z,53.63
2022-08-28T01:35:01.398Z,53.63
2022-08-28T01:35:11.392Z,53.73
2022-08-28T01:35:21.394Z,53.73
2022-08-28T01:35:31.390Z,53.73
2022-08-28T01:35:41.393Z,53.73
2022-08-28T01:35:51.388Z,53.73
2022-08-28T01:36:01.401Z,53.73
2022-08-28T01:36:21.390Z,53.86
2022-08-28T01:36:31.387Z,53.83
2022-08-28T01:36:41.385Z,53.86
2022-08-28T01:36:51.384Z,53.83
2022-08-28T01:37:01.400Z,53.73
2022-08-28T01:37:11.379Z,53.73
2022-08-28T01:37:21.383Z,53.73
2022-08-28T01:37:31.378Z,53.73
2022-08-28T01:37:41.377Z,53.73
2022-08-28T01:37:51.375Z,53.73
2022-08-28T01:38:01.396Z,53.86
2022-08-28T01:38:11.593Z,53.83
2022-08-28T01:38:21.985Z,53.83
2022-08-28T01:38:31.438Z,53.83
2022-08-28T01:38:41.372Z,53.83
2022-08-28T01:38:51.367Z,53.73
2022-08-28T01:39:01.375Z,53.73
2022-08-28T01:39:11.379Z,53.73
2022-08-28T01:39:21.369Z,53.73
2022-08-28T01:39:31.363Z,53.86
2022-08-28T01:39:41.364Z,53.83
2022-08-28T01:39:51.376Z,53.86
2022-08-28T01:40:01.385Z,53.83
2022-08-28T01:40:11.397Z,53.86
2022-08-28T01:40:21.403Z,53.83
2022-08-28T01:40:31.494Z,53.73
2022-08-28T01:40:41.409Z,53.73
2022-08-28T01:40:51.357Z,53.83
2022-08-28T01:41:01.359Z,53.83
2022-08-28T01:41:11.355Z,53.83
2022-08-28T01:41:21.357Z,53.86
2022-08-28T01:41:31.352Z,53.73
2022-08-28T01:41:41.352Z,53.73
2022-08-28T01:41:51.349Z,53.73
2022-08-28T01:42:01.349Z,53.63
2022-08-28T01:42:11.344Z,53.73
2022-08-28T01:42:21.349Z,53.73
2022-08-28T01:42:31.343Z,53.73
2022-08-28T01:42:41.345Z,53.63
2022-08-28T01:42:51.343Z,53.63
2022-08-28T01:43:01.350Z,53.63
2022-08-28T01:43:11.337Z,53.73
2022-08-28T01:43:21.339Z,53.63
2022-08-28T01:43:31.335Z,53.63
2022-08-28T01:43:41.339Z,53.63
2022-08-28T01:43:51.336Z,53.63
2022-08-28T01:44:01.351Z,53.63
2022-08-28T01:44:11.332Z,53.63
2022-08-28T01:44:21.337Z,53.63
2022-08-28T01:44:31.330Z,53.53
2022-08-28T01:44:41.333Z,53.53
2022-08-28T01:44:51.327Z,53.53
2022-08-28T01:45:01.351Z,53.53
2022-08-28T01:45:11.326Z,53.53
2022-08-28T01:45:21.328Z,53.53
2022-08-28T01:45:31.327Z,53.53
2022-08-28T01:45:41.325Z,53.53
2022-08-28T01:45:51.382Z,53.53
2022-08-28T01:46:01.413Z,53.53
2022-08-28T01:46:11.357Z,53.53
2022-08-28T01:46:21.383Z,53.53
2022-08-28T01:46:31.406Z,53.63
2022-08-28T01:46:41.374Z,53.63
2022-08-28T01:46:51.314Z,53.63
2022-08-28T01:47:01.355Z,53.63
2022-08-28T01:47:11.315Z,53.63
2022-08-28T01:47:21.313Z,53.63
2022-08-28T01:47:31.311Z,53.63
2022-08-28T01:47:41.313Z,53.63
2022-08-28T01:47:51.334Z,53.63
2022-08-28T01:48:01.312Z,53.63
2022-08-28T01:48:11.525Z,53.63
2022-08-28T01:48:21.312Z,53.63
2022-08-28T01:48:31.303Z,53.63
2022-08-28T01:48:41.309Z,53.63
2022-08-28T01:48:51.307Z,53.63
2022-08-28T01:49:01.304Z,53.63
2022-08-28T01:49:11.299Z,53.63
2022-08-28T01:49:21.309Z,53.63
2022-08-28T01:49:31.297Z,53.63
2022-08-28T01:49:41.297Z,53.63
2022-08-28T01:49:51.294Z,53.63
2022-08-28T01:50:01.298Z,53.63
2022-08-28T01:50:11.290Z,53.63
2022-08-28T01:50:21.297Z,53.63
2022-08-28T01:50:31.292Z,53.63
2022-08-28T01:50:41.296Z,53.63
2022-08-28T01:50:51.290Z,53.63
2022-08-28T01:51:01.292Z,53.63
2022-08-28T01:51:11.291Z,53.63
2022-08-28T01:51:24.495Z,53.63
2022-08-28T01:51:35.015Z,53.63
2022-08-28T01:51:42.474Z,53.63
2022-08-28T01:51:51.309Z,53.63
2022-08-28T01:52:01.285Z,53.63
2022-08-28T01:52:11.782Z,53.63
2022-08-28T01:52:24.158Z,53.63
2022-08-28T01:52:31.282Z,53.63
2022-08-28T01:52:41.283Z,53.63
2022-08-28T01:52:51.277Z,53.63
2022-08-28T01:53:01.275Z,53.53
2022-08-28T01:53:12.507Z,53.53
2022-08-28T01:53:24.754Z,53.53
2022-08-28T01:53:33.075Z,53.53
2022-08-28T01:53:41.273Z,53.53
2022-08-28T01:54:01.269Z,53.53
2022-08-28T01:54:11.978Z,53.63
2022-08-28T01:54:21.267Z,53.63
2022-08-28T01:54:31.264Z,53.63
2022-08-28T01:54:41.262Z,53.63
2022-08-28T01:54:51.259Z,53.63
2022-08-28T01:55:01.266Z,53.63
2022-08-28T01:55:11.257Z,53.63
2022-08-28T01:55:21.607Z,53.76
2022-08-28T01:55:31.255Z,53.73
2022-08-28T01:55:41.258Z,53.76
2022-08-28T01:55:51.251Z,53.76
2022-08-28T01:56:01.257Z,53.76
2022-08-28T01:56:11.273Z,53.76
2022-08-28T01:56:21.256Z,53.76
2022-08-28T01:56:31.248Z,53.76
2022-08-28T01:56:41.252Z,53.86
2022-08-28T01:56:51.249Z,53.86
2022-08-28T01:57:01.266Z,53.86
2022-08-28T01:57:11.246Z,53.86
2022-08-28T01:57:21.245Z,53.86
2022-08-28T01:57:31.245Z,53.86
2022-08-28T01:57:41.246Z,53.86
2022-08-28T01:57:51.240Z,53.76
2022-08-28T01:58:01.247Z,53.73
2022-08-28T01:58:11.277Z,53.76
2022-08-28T01:58:21.240Z,53.63
2022-08-28T01:58:32.994Z,53.66
2022-08-28T01:58:41.240Z,53.63
2022-08-28T01:58:51.236Z,53.66
2022-08-28T01:59:01.236Z,53.63
2022-08-28T01:59:11.233Z,53.73
2022-08-28T01:59:21.235Z,53.73
2022-08-28T01:59:31.230Z,53.66
2022-08-28T01:59:41.232Z,53.73
2022-08-28T01:59:51.228Z,53.73
2022-08-28T02:00:01.228Z,53.76
2022-08-28T02:00:11.226Z,53.76
2022-08-28T02:00:21.228Z,53.76
2022-08-28T02:00:31.222Z,53.76
2022-08-28T02:00:41.228Z,53.76
2022-08-28T02:00:51.221Z,53.76
2022-08-28T02:01:01.226Z,53.66
2022-08-28T02:01:11.300Z,53.63
2022-08-28T02:01:21.265Z,53.66
2022-08-28T02:01:31.238Z,53.63
2022-08-28T02:01:41.282Z,53.63
2022-08-28T02:01:51.274Z,53.63
2022-08-28T02:02:01.299Z,53.63
2022-08-28T02:02:11.233Z,53.63
2022-08-28T02:02:21.212Z,53.66
2022-08-28T02:02:31.210Z,53.63
2022-08-28T02:02:41.213Z,53.63
2022-08-28T02:02:51.206Z,53.66
2022-08-28T02:03:01.209Z,53.76
2022-08-28T02:03:11.210Z,53.76
2022-08-28T02:03:21.206Z,53.86
2022-08-28T02:03:31.204Z,53.86
2022-08-28T02:03:41.248Z,53.86
2022-08-28T02:03:51.251Z,53.86
2022-08-28T02:04:01.232Z,53.86
2022-08-28T02:04:11.289Z,53.86
2022-08-28T02:04:21.238Z,53.86
2022-08-28T02:04:36.411Z,53.86
2022-08-28T02:04:43.339Z,53.86
2022-08-28T02:04:51.223Z,53.86
2022-08-28T02:05:01.195Z,53.76
2022-08-28T02:05:11.191Z,53.76
2022-08-28T02:05:21.193Z,53.76
2022-08-28T02:05:31.200Z,53.76
2022-08-28T02:05:41.193Z,53.76
2022-08-28T02:05:51.193Z,53.76
2022-08-28T02:06:01.189Z,53.76
2022-08-28T02:06:11.185Z,53.76
2022-08-28T02:06:21.204Z,53.76
2022-08-28T02:06:31.181Z,53.76
2022-08-28T02:06:41.187Z,53.76
2022-08-28T02:06:51.185Z,53.66
2022-08-28T02:07:01.183Z,53.66
2022-08-28T02:07:11.181Z,53.76
2022-08-28T02:07:21.181Z,53.66
2022-08-28T02:07:31.177Z,53.66
2022-08-28T02:07:41.179Z,53.66
2022-08-28T02:07:51.173Z,53.66
2022-08-28T02:08:01.189Z,53.66
2022-08-28T02:08:11.217Z,53.66
2022-08-28T02:08:21.178Z,53.66
2022-08-28T02:08:31.170Z,53.66
2022-08-28T02:08:41.173Z,53.66
2022-08-28T02:08:51.171Z,53.66
2022-08-28T02:09:01.218Z,53.66
2022-08-28T02:09:14.344Z,53.66
2022-08-28T02:09:21.167Z,53.66
2022-08-28T02:09:31.163Z,53.53
2022-08-28T02:09:41.165Z,53.53
2022-08-28T02:09:51.160Z,53.53
2022-08-28T02:10:01.162Z,53.56
2022-08-28T02:10:11.158Z,53.56
2022-08-28T02:10:21.159Z,53.66
2022-08-28T02:10:31.155Z,53.66
2022-08-28T02:10:41.159Z,53.76
2022-08-28T02:10:51.152Z,53.86
2022-08-28T02:11:01.164Z,53.86
2022-08-28T02:11:11.150Z,53.86
2022-08-28T02:11:21.152Z,53.86
2022-08-28T02:11:41.150Z,53.96
2022-08-28T02:11:51.147Z,53.96